createdAt,value
2022-10-17T00:01:11.775Z,58.77
2022-10-17T00:03:40.880Z,59.08
2022-10-17T00:06:12.388Z,59.28
2022-10-17T00:08:41.907Z,59.64
2022-10-17T00:11:23.971Z,59.39
2022-10-17T00:13:55.431Z,59.43
2022-10-17T00:16:38.955Z,59.08
2022-10-17T00:19:07.939Z,58.96
2022-10-17T00:21:35.759Z,58.92
2022-10-17T00:24:03.970Z,58.90
2022-10-17T00:26:31.904Z,58.85
2022-10-17T00:29:00.649Z,58.93
2022-10-17T00:31:28.387Z,58.92
2022-10-17T00:33:56.235Z,58.99
2022-10-17T00:36:26.989Z,58.90
2022-10-17T00:38:58.665Z,58.86
2022-10-17T00:41:33.787Z,58.93
2022-10-17T00:44:27.475Z,58.89
2022-10-17T00:46:59.011Z,59.02
2022-10-17T00:49:30.568Z,59.29
2022-10-17T00:52:03.259Z,59.08
2022-10-17T00:54:40.165Z,58.94
2022-10-17T00:57:08.123Z,58.99
2022-10-17T00:59:40.162Z,58.78
2022-10-17T01:02:13.577Z,58.90
2022-10-17T01:04:44.994Z,59.05
2022-10-17T01:07:13.994Z,59.10
2022-10-17T01:09:43.731Z,59.13
2022-10-17T01:12:31.131Z,58.82
2022-10-17T01:15:45.382Z,58.82
2022-10-17T01:18:54.049Z,58.80
2022-10-17T01:21:49.108Z,58.91
2022-10-17T01:24:48.357Z,59.04
2022-10-17T01:28:00.947Z,59.00
2022-10-17T01:31:22.664Z,59.20
2022-10-17T01:34:24.713Z,59.30
2022-10-17T01:37:56.742Z,59.42
2022-10-17T01:41:10.475Z,59.30
2022-10-17T01:43:47.264Z,59.27
2022-10-17T01:46:32.016Z,59.09
2022-10-17T01:49:02.872Z,59.06
2022-10-17T01:51:59.748Z,58.86
2022-10-17T01:55:12.348Z,59.12
2022-10-17T01:57:55.736Z,59.05
2022-10-17T02:00:27.810Z,59.16
2022-10-17T02:03:02.775Z,59.08
2022-10-17T02:05:41.391Z,58.81
2022-10-17T02:08:12.716Z,59.03
2022-10-17T02:11:07.686Z,58.74
2022-10-17T02:13:59.245Z,58.88
2022-10-17T02:17:24.863Z,58.68
2022-10-17T02:20:25.740Z,58.92
2022-10-17T02:26:06.556Z,58.79
2022-10-17T02:28:56.310Z,58.93
2022-10-17T02:31:40.326Z,58.92
2022-10-17T02:34:18.590Z,58.80
2022-10-17T02:37:12.977Z,58.86
2022-10-17T02:40:02.142Z,59.13
2022-10-17T02:42:31.842Z,58.81
2022-10-17T02:45:04.224Z,59.06
2022-10-17T02:47:52.310Z,58.94
2022-10-17T02:50:31.098Z,58.90
2022-10-17T02:53:17.751Z,58.95
2022-10-17T02:56:00.287Z,58.78
2022-10-17T02:58:32.987Z,59.22
2022-10-17T03:01:04.972Z,59.04
2022-10-17T03:03:34.615Z,58.99
2022-10-17T03:06:03.607Z,59.08
2022-10-17T03:08:32.004Z,59.14
2022-10-17T03:11:02.938Z,59.26
2022-10-17T03:13:34.952Z,59.29
2022-10-17T03:16:06.435Z,59.01
2022-10-17T03:18:35.944Z,58.97
2022-10-17T03:21:05.025Z,58.96
2022-10-17T03:23:32.936Z,58.84
2022-10-17T03:26:07.709Z,58.81
2022-10-17T03:28:36.894Z,59.00
2022-10-17T03:31:12.225Z,58.72
2022-10-17T03:33:40.335Z,58.80
2022-10-17T03:36:12.858Z,58.71
2022-10-17T03:38:42.547Z,58.62
2022-10-17T03:41:11.193Z,58.79
2022-10-17T03:43:40.921Z,58.75
2022-10-17T03:46:10.135Z,58.79
2022-10-17T03:48:38.999Z,58.46
2022-10-17T03:51:10.739Z,58.68
2022-10-17T03:53:46.704Z,58.78
2022-10-17T03:56:25.452Z,58.79
2022-10-17T03:59:01.005Z,58.91
2022-10-17T04:01:30.691Z,59.02
2022-10-17T04:03:59.601Z,58.79
2022-10-17T04:06:31.307Z,58.78
2022-10-17T04:09:00.245Z,58.86
2022-10-17T04:11:34.598Z,58.83
2022-10-17T04:14:04.038Z,58.93
2022-10-17T04:16:33.214Z,58.84
2022-10-17T04:19:04.245Z,58.96
2022-10-17T04:21:38.061Z,58.84
2022-10-17T04:24:12.618Z,58.91
2022-10-17T04:26:52.518Z,59.05
2022-10-17T04:29:27.109Z,59.07
2022-10-17T04:32:02.694Z,59.07
2022-10-17T04:34:40.447Z,59.12
2022-10-17T04:37:08.369Z,58.98
2022-10-17T04:39:38.760Z,59.09
2022-10-17T04:42:07.761Z,59.04
2022-10-17T04:44:35.830Z,59.23
2022-10-17T04:47:04.170Z,58.95
2022-10-17T04:49:34.320Z,59.06
2022-10-17T04:52:12.025Z,59.07
2022-10-17T04:54:49.286Z,59.13
2022-10-17T04:57:20.254Z,59.12
2022-10-17T04:59:57.971Z,59.17
2022-10-17T05:02:45.185Z,59.23
2022-10-17T05:05:13.134Z,59.07
2022-10-17T05:07:41.841Z,59.00
2022-10-17T05:10:18.897Z,59.00
2022-10-17T05:12:50.589Z,59.06
2022-10-17T05:15:20.443Z,58.97
2022-10-17T05:17:49.434Z,59.13
2022-10-17T05:20:18.745Z,59.12
2022-10-17T05:22:46.993Z,59.07
2022-10-17T05:25:15.732Z,59.06
2022-10-17T05:27:48.800Z,59.05
2022-10-17T05:30:17.219Z,59.24
2022-10-17T05:32:45.650Z,59.19
2022-10-17T05:35:13.504Z,59.24
2022-10-17T05:37:42.677Z,59.18
2022-10-17T05:40:11.780Z,59.17
2022-10-17T05:42:47.877Z,59.05
2022-10-17T05:45:17.851Z,59.13
2022-10-17T05:47:47.020Z,59.23
2022-10-17T05:50:15.143Z,59.16
2022-10-17T05:53:01.083Z,59.09
2022-10-17T05:55:29.556Z,58.95
2022-10-17T05:58:01.397Z,59.17
2022-10-17T06:00:35.117Z,59.19
2022-10-17T06:03:06.354Z,59.18
2022-10-17T06:05:36.476Z,59.08
2022-10-17T06:08:04.517Z,59.25
2022-10-17T06:10:36.044Z,59.28
2022-10-17T06:13:04.152Z,59.33
2022-10-17T06:15:32.409Z,59.44
2022-10-17T06:18:04.811Z,59.53
2022-10-17T06:20:35.242Z,59.78
2022-10-17T06:23:04.324Z,59.64
2022-10-17T06:26:03.261Z,59.65
2022-10-17T06:28:32.027Z,59.73
2022-10-17T06:31:00.512Z,59.77
2022-10-17T06:33:28.309Z,59.96
2022-10-17T06:35:57.356Z,60.00
2022-10-17T06:38:27.028Z,60.10
2022-10-17T06:41:11.389Z,60.15
2022-10-17T06:43:40.619Z,60.26
2022-10-17T06:46:29.962Z,60.28
2022-10-17T06:49:07.369Z,60.41
2022-10-17T06:51:49.673Z,60.76
2022-10-17T06:54:20.914Z,60.61
2022-10-17T06:56:53.289Z,60.56
2022-10-17T06:59:40.418Z,60.68
2022-10-17T07:02:12.978Z,60.78
2022-10-17T07:04:40.936Z,60.90
2022-10-17T07:07:08.984Z,61.10
2022-10-17T07:09:37.627Z,61.02
2022-10-17T07:12:08.460Z,60.86
2022-10-17T07:14:36.853Z,61.22
2022-10-17T07:17:06.539Z,61.37
2022-10-17T07:19:34.513Z,61.46
2022-10-17T07:22:04.079Z,61.40
2022-10-17T07:24:33.791Z,61.61
2022-10-17T07:27:26.547Z,61.80
2022-10-17T07:29:55.225Z,61.99
2022-10-17T07:32:54.392Z,62.04
2022-10-17T07:35:22.453Z,62.05
2022-10-17T07:37:52.577Z,61.96
2022-10-17T07:40:22.461Z,62.12
2022-10-17T07:42:51.207Z,62.16
2022-10-17T07:45:20.644Z,62.14
2022-10-17T07:47:49.067Z,62.36
2022-10-17T07:50:18.246Z,62.61
2022-10-17T07:52:46.405Z,62.63
2022-10-17T07:55:15.686Z,62.40
2022-10-17T07:57:44.598Z,62.77
2022-10-17T08:00:13.269Z,62.69
2022-10-17T08:02:42.801Z,62.55
2022-10-17T08:07:54.781Z,62.74
2022-10-17T08:10:27.766Z,62.95
2022-10-17T08:12:57.843Z,62.88
2022-10-17T08:15:30.878Z,62.72
2022-10-17T08:18:00.435Z,62.62
2022-10-17T08:20:28.750Z,62.84
2022-10-17T08:22:57.499Z,62.64
2022-10-17T08:25:27.126Z,62.91
2022-10-17T08:27:55.125Z,62.72
2022-10-17T08:30:23.356Z,62.73
2022-10-17T08:32:52.777Z,62.60
2022-10-17T08:35:21.868Z,62.69
2022-10-17T08:37:50.604Z,62.49
2022-10-17T08:40:27.692Z,62.49
2022-10-17T08:44:09.074Z,62.60
2022-10-17T08:46:41.386Z,62.76
2022-10-17T08:50:03.700Z,62.51
2022-10-17T08:52:54.430Z,62.59
2022-10-17T08:55:48.907Z,62.27
2022-10-17T08:58:26.072Z,62.07
2022-10-17T09:01:17.851Z,61.89
2022-10-17T09:04:01.111Z,61.72
2022-10-17T09:06:41.787Z,61.57
2022-10-17T09:09:47.526Z,61.16
2022-10-17T09:12:30.500Z,61.28
2022-10-17T09:15:36.293Z,60.87
2022-10-17T09:18:32.466Z,60.87
2022-10-17T09:21:45.289Z,60.73
2022-10-17T09:24:55.121Z,60.57
2022-10-17T09:27:41.312Z,60.67
2022-10-17T09:30:45.943Z,60.24
2022-10-17T09:33:55.050Z,60.13
2022-10-17T09:36:33.916Z,60.02
2022-10-17T09:39:13.572Z,59.74
2022-10-17T09:41:58.996Z,59.45
2022-10-17T09:44:35.047Z,59.40
2022-10-17T09:47:14.709Z,59.31
2022-10-17T09:49:46.096Z,59.23
2022-10-17T09:52:40.292Z,59.75
2022-10-17T09:55:38.467Z,59.40
2022-10-17T09:58:09.601Z,59.28
2022-10-17T10:00:39.430Z,59.20
2022-10-17T10:03:23.719Z,58.86
2022-10-17T10:06:27.264Z,58.67
2022-10-17T10:08:58.999Z,58.76
2022-10-17T10:11:49.372Z,58.43
2022-10-17T10:14:34.956Z,58.53
2022-10-17T10:17:06.941Z,58.42
2022-10-17T10:19:37.521Z,58.43
2022-10-17T10:22:14.540Z,58.21
2022-10-17T10:24:43.375Z,57.73
2022-10-17T10:27:18.019Z,57.39
2022-10-17T10:29:51.494Z,57.31
2022-10-17T10:32:26.811Z,57.03
2022-10-17T10:35:31.281Z,56.74
2022-10-17T10:38:02.199Z,57.30
2022-10-17T10:41:01.235Z,56.66
2022-10-17T10:43:46.272Z,56.63
2022-10-17T10:46:27.719Z,56.51
2022-10-17T10:48:59.766Z,57.03
2022-10-17T10:51:48.477Z,56.56
2022-10-17T10:54:28.203Z,56.62
2022-10-17T10:57:03.533Z,55.94
2022-10-17T11:00:05.480Z,56.11
2022-10-17T11:03:42.460Z,55.87
2022-10-17T11:06:23.580Z,55.67
2022-10-17T11:09:04.121Z,55.55
2022-10-17T11:11:42.591Z,55.84
2022-10-17T11:14:34.450Z,55.67
2022-10-17T11:17:29.469Z,55.51
2022-10-17T11:21:01.112Z,55.14
2022-10-17T11:24:30.234Z,55.38
2022-10-17T11:27:05.727Z,55.02
2022-10-17T11:29:38.732Z,54.85
2022-10-17T11:33:01.035Z,54.22
2022-10-17T11:35:42.734Z,54.01
2022-10-17T11:38:45.449Z,54.70
2022-10-17T11:41:27.448Z,54.06
2022-10-17T11:44:04.078Z,54.24
2022-10-17T11:46:36.186Z,53.76
2022-10-17T11:49:28.604Z,53.40
2022-10-17T11:52:55.843Z,53.36
2022-10-17T11:55:28.465Z,53.49
2022-10-17T11:58:11.200Z,52.93
2022-10-17T12:01:08.359Z,53.22
2022-10-17T12:04:20.520Z,52.89
2022-10-17T12:07:11.359Z,52.47
2022-10-17T12:10:35.599Z,51.86
2022-10-17T12:13:32.899Z,52.07
2022-10-17T12:16:19.619Z,51.76
2022-10-17T12:19:03.031Z,51.40
2022-10-17T12:22:19.308Z,51.65
2022-10-17T12:24:56.151Z,51.25
2022-10-17T12:27:46.316Z,51.33
2022-10-17T12:30:25.749Z,51.41
2022-10-17T12:33:07.024Z,51.57
2022-10-17T12:35:38.813Z,51.29
2022-10-17T12:38:20.441Z,52.09
2022-10-17T12:40:50.658Z,51.70
2022-10-17T12:43:28.802Z,51.13
2022-10-17T12:46:04.858Z,51.30
2022-10-17T12:48:39.084Z,51.08
2022-10-17T12:54:16.652Z,50.95
2022-10-17T12:56:48.572Z,51.45
2022-10-17T12:59:27.781Z,51.04
2022-10-17T13:02:01.667Z,50.82
2022-10-17T13:04:31.220Z,50.90
2022-10-17T13:07:01.430Z,50.97
2022-10-17T13:09:35.518Z,50.75
2022-10-17T13:12:11.487Z,50.72
2022-10-17T13:14:44.225Z,50.83
2022-10-17T13:17:30.949Z,50.29
2022-10-17T13:19:59.213Z,50.59
2022-10-17T13:22:32.480Z,50.44
2022-10-17T13:25:17.183Z,50.09
2022-10-17T13:27:46.055Z,50.25
2022-10-17T13:30:32.249Z,50.58
2022-10-17T13:33:03.480Z,50.36
2022-10-17T13:35:59.440Z,50.25
2022-10-17T13:38:38.920Z,50.51
2022-10-17T13:44:12.390Z,50.09
2022-10-17T13:46:41.434Z,50.32
2022-10-17T13:49:25.718Z,49.74
2022-10-17T13:51:58.195Z,49.65
2022-10-17T13:54:42.888Z,49.97
2022-10-17T13:57:31.926Z,49.26
2022-10-17T14:00:25.192Z,49.30
2022-10-17T14:02:53.421Z,49.47
2022-10-17T14:05:25.148Z,49.50
2022-10-17T14:08:20.459Z,49.20
2022-10-17T14:10:49.448Z,49.18
2022-10-17T14:13:34.318Z,49.09
2022-10-17T14:16:04.475Z,49.09
2022-10-17T14:18:37.682Z,48.81
2022-10-17T14:21:34.291Z,48.82
2022-10-17T14:24:23.501Z,48.46
2022-10-17T14:26:59.555Z,48.72
2022-10-17T14:29:53.125Z,48.70
2022-10-17T14:32:22.490Z,48.64
2022-10-17T14:35:05.570Z,48.52
2022-10-17T14:38:07.407Z,48.67
2022-10-17T14:41:43.774Z,48.21
2022-10-17T14:44:32.576Z,48.39
2022-10-17T14:47:31.143Z,48.38
2022-10-17T14:50:28.046Z,47.99
2022-10-17T14:53:21.031Z,48.09
2022-10-17T14:56:25.126Z,48.27
2022-10-17T14:58:53.777Z,48.60
2022-10-17T15:01:25.237Z,48.52
2022-10-17T15:03:53.862Z,48.39
2022-10-17T15:06:26.692Z,48.46
2022-10-17T15:08:54.787Z,48.47
2022-10-17T15:11:22.890Z,48.73
2022-10-17T15:13:51.893Z,48.42
2022-10-17T15:16:31.061Z,48.47
2022-10-17T15:18:59.339Z,48.63
2022-10-17T15:21:47.296Z,48.70
2022-10-17T15:24:15.969Z,48.78
2022-10-17T15:26:43.848Z,48.81
2022-10-17T15:29:16.113Z,48.73
2022-10-17T15:31:44.316Z,49.08
2022-10-17T15:34:12.446Z,49.02
2022-10-17T15:36:48.167Z,49.31
2022-10-17T15:39:16.844Z,49.48
2022-10-17T15:41:45.359Z,49.36
2022-10-17T15:44:13.387Z,49.34
2022-10-17T15:46:42.701Z,49.50
2022-10-17T15:49:14.567Z,49.62
2022-10-17T15:51:42.931Z,50.05
2022-10-17T15:56:54.053Z,50.00
2022-10-17T15:59:28.881Z,50.15
2022-10-17T16:01:57.006Z,50.23
2022-10-17T16:04:27.476Z,50.38
2022-10-17T16:06:55.246Z,50.53
2022-10-17T16:09:23.284Z,50.01
2022-10-17T16:11:51.278Z,49.92
2022-10-17T16:14:19.543Z,50.07
2022-10-17T16:16:48.122Z,50.08
2022-10-17T16:19:17.238Z,50.17
2022-10-17T16:21:45.675Z,50.13
2022-10-17T16:24:15.440Z,50.11
2022-10-17T16:26:43.502Z,50.29
2022-10-17T16:29:12.068Z,50.48
2022-10-17T16:31:45.788Z,50.51
2022-10-17T16:34:16.292Z,50.61
2022-10-17T16:36:44.252Z,51.23
2022-10-17T16:39:12.121Z,51.26
2022-10-17T16:41:40.784Z,51.30
2022-10-17T16:44:15.347Z,51.74
2022-10-17T16:46:43.974Z,52.12
2022-10-17T16:49:12.616Z,51.86
2022-10-17T16:51:40.773Z,52.10
2022-10-17T16:54:10.040Z,52.28
2022-10-17T16:56:38.396Z,52.53
2022-10-17T16:59:08.101Z,52.83
2022-10-17T17:01:37.978Z,52.86
2022-10-17T17:04:05.844Z,52.98
2022-10-17T17:06:33.670Z,52.92
2022-10-17T17:09:02.869Z,53.24
2022-10-17T17:11:32.722Z,53.57
2022-10-17T17:14:02.621Z,53.44
2022-10-17T17:16:34.913Z,53.38
2022-10-17T17:19:12.493Z,53.66
2022-10-17T17:21:43.469Z,54.03
2022-10-17T17:24:11.244Z,53.86
2022-10-17T17:26:40.947Z,54.34
2022-10-17T17:29:09.416Z,54.42
2022-10-17T17:31:39.127Z,54.29
2022-10-17T17:34:07.499Z,54.74
2022-10-17T17:36:37.964Z,54.55
2022-10-17T17:39:11.436Z,54.64
2022-10-17T17:41:42.486Z,54.88
2022-10-17T17:44:16.430Z,54.84
2022-10-17T17:46:45.838Z,54.99
2022-10-17T17:49:14.384Z,55.03
2022-10-17T17:51:46.094Z,55.25
2022-10-17T17:54:15.230Z,55.04
2022-10-17T17:56:43.647Z,55.16
2022-10-17T17:59:13.804Z,55.23
2022-10-17T18:01:43.309Z,55.30
2022-10-17T18:04:13.652Z,55.34
2022-10-17T18:06:41.711Z,55.49
2022-10-17T18:09:10.872Z,55.52
2022-10-17T18:11:39.124Z,55.49
2022-10-17T18:14:13.426Z,55.98
2022-10-17T18:16:44.205Z,55.88
2022-10-17T18:19:12.767Z,56.43
2022-10-17T18:21:44.557Z,56.20
2022-10-17T18:24:12.913Z,56.62
2022-10-17T18:26:40.938Z,56.24
2022-10-17T18:29:12.869Z,56.47
2022-10-17T18:31:41.003Z,56.63
2022-10-17T18:34:10.580Z,56.31
2022-10-17T18:36:40.524Z,56.54
2022-10-17T18:39:09.202Z,56.63
2022-10-17T18:41:37.127Z,56.44
2022-10-17T18:44:05.345Z,56.59
2022-10-17T18:46:41.222Z,56.77
2022-10-17T18:49:16.164Z,56.40
2022-10-17T18:51:44.025Z,56.67
2022-10-17T18:54:21.339Z,56.64
2022-10-17T18:56:54.869Z,57.01
2022-10-17T18:59:23.467Z,56.98
2022-10-17T19:01:51.492Z,56.77
2022-10-17T19:04:20.167Z,56.87
2022-10-17T19:06:50.414Z,57.08
2022-10-17T19:09:20.153Z,56.94
2022-10-17T19:11:48.674Z,56.82
2022-10-17T19:14:16.922Z,56.97
2022-10-17T19:16:49.034Z,56.70
2022-10-17T19:19:22.739Z,56.86
2022-10-17T19:21:52.710Z,57.01
2022-10-17T19:24:28.379Z,57.04
2022-10-17T19:27:03.322Z,57.26
2022-10-17T19:29:33.104Z,57.04
2022-10-17T19:32:02.783Z,57.14
2022-10-17T19:34:31.598Z,57.28
2022-10-17T19:37:01.610Z,57.30
2022-10-17T19:39:31.124Z,57.37
2022-10-17T19:42:05.893Z,57.29
2022-10-17T19:44:37.250Z,57.41
2022-10-17T19:47:05.914Z,57.57
2022-10-17T19:49:34.556Z,57.32
2022-10-17T19:52:03.275Z,57.58
2022-10-17T19:54:31.899Z,57.61
2022-10-17T19:57:00.876Z,57.68
2022-10-17T19:59:29.690Z,57.56
2022-10-17T20:02:00.410Z,57.75
2022-10-17T20:04:29.333Z,57.66
2022-10-17T20:07:00.261Z,57.77
2022-10-17T20:09:28.886Z,57.33
2022-10-17T20:11:57.781Z,57.49
2022-10-17T20:14:26.806Z,57.55
2022-10-17T20:16:55.884Z,57.67
2022-10-17T20:19:24.577Z,57.61
2022-10-17T20:21:53.327Z,57.54
2022-10-17T20:24:21.886Z,57.46
2022-10-17T20:26:50.782Z,57.66
2022-10-17T20:29:24.230Z,57.61
2022-10-17T20:31:52.999Z,57.62
2022-10-17T20:34:21.722Z,57.47
2022-10-17T20:36:54.292Z,57.89
2022-10-17T20:39:24.575Z,57.77
2022-10-17T20:41:52.558Z,57.66
2022-10-17T20:44:21.044Z,57.68
2022-10-17T20:47:04.447Z,57.59
2022-10-17T20:49:33.723Z,57.67
2022-10-17T20:52:02.461Z,57.85
2022-10-17T20:54:38.598Z,57.82
2022-10-17T20:57:07.516Z,57.97
2022-10-17T20:59:38.039Z,57.89
2022-10-17T21:02:08.495Z,58.02
2022-10-17T21:04:52.509Z,57.95
2022-10-17T21:07:22.487Z,57.83
2022-10-17T21:09:50.889Z,58.05
2022-10-17T21:12:26.219Z,57.90
2022-10-17T21:15:05.609Z,57.90
2022-10-17T21:17:33.906Z,57.76
2022-10-17T21:20:03.502Z,57.80
2022-10-17T21:22:34.981Z,57.79
2022-10-17T21:25:03.444Z,57.80
2022-10-17T21:27:31.918Z,57.60
2022-10-17T21:30:00.153Z,57.58
2022-10-17T21:32:47.091Z,57.71
2022-10-17T21:35:15.980Z,57.75
2022-10-17T21:37:44.279Z,57.91
2022-10-17T21:40:13.130Z,58.01
2022-10-17T21:42:41.671Z,58.21
2022-10-17T21:45:15.840Z,58.01
2022-10-17T21:48:11.322Z,58.18
2022-10-17T21:50:36.218Z,58.45
2022-10-17T21:53:04.069Z,58.54
2022-10-17T21:55:32.641Z,58.30
2022-10-17T21:58:01.177Z,58.54
2022-10-17T22:00:30.183Z,58.21
2022-10-17T22:02:58.834Z,58.41
2022-10-17T22:05:27.640Z,58.58
2022-10-17T22:07:56.528Z,58.63
2022-10-17T22:10:24.648Z,58.64
2022-10-17T22:12:52.746Z,58.62
2022-10-17T22:15:21.182Z,58.60
2022-10-17T22:17:50.429Z,58.59
2022-10-17T22:20:19.841Z,58.44
2022-10-17T22:22:48.265Z,58.57
2022-10-17T22:25:16.919Z,58.73
2022-10-17T22:27:44.754Z,58.59
2022-10-17T22:30:12.936Z,58.95
2022-10-17T22:32:40.997Z,58.93
2022-10-17T22:35:09.881Z,58.74
2022-10-17T22:37:37.768Z,58.60
2022-10-17T22:40:07.157Z,58.59
2022-10-17T22:42:35.725Z,58.75
2022-10-17T22:45:04.274Z,58.52
2022-10-17T22:47:32.479Z,58.65
2022-10-17T22:50:00.973Z,58.50
2022-10-17T22:52:30.276Z,58.78
2022-10-17T22:54:58.869Z,58.63
2022-10-17T22:57:26.920Z,58.54
2022-10-17T22:59:54.833Z,58.63
2022-10-17T23:02:22.884Z,58.55
2022-10-17T23:04:50.891Z,58.80
2022-10-17T23:07:18.820Z,58.68
2022-10-17T23:09:46.915Z,58.63
2022-10-17T23:12:15.559Z,58.74
2022-10-17T23:14:44.188Z,59.07
2022-10-17T23:17:14.300Z,58.87
2022-10-17T23:19:42.041Z,59.04
2022-10-17T23:22:10.223Z,59.18
2022-10-17T23:24:38.115Z,59.15
2022-10-17T23:27:05.936Z,59.07
2022-10-17T23:29:34.986Z,58.84
2022-10-17T23:32:02.789Z,58.99
2022-10-17T23:34:30.565Z,59.15
2022-10-17T23:36:58.685Z,59.03
2022-10-17T23:39:27.589Z,59.01
2022-10-17T23:41:56.439Z,59.20
2022-10-17T23:44:24.831Z,59.05
2022-10-17T23:46:52.782Z,59.18
2022-10-17T23:49:20.643Z,59.06
2022-10-17T23:51:48.662Z,59.32
2022-10-17T23:54:18.439Z,59.38
2022-10-17T23:56:46.337Z,59.26
2022-10-17T23:59:14.155Z,59.50
